Time;durP1;ratioP1;P1;durP2;ratioP2;P2;SDS_P1;SDS_P2;PMS_P1;PMS_P2;Temp;Humidity;BMP_temperature;BMP_pressure;BME280_temperature;BME280_humidity;BME280_pressure;Samples;Min_cycle;Max_cycle;Signal;HPM_P1;HPM_P2
2022/04/16 00:00:09;;;;;;;4.77;4.00;;;9.70;99.90;;;;;;10437235;28;20183;-69
2022/04/16 00:05:09;;;;;;;4.33;3.93;;;9.70;99.90;;;;;;10429150;28;20532;-69
2022/04/16 00:10:10;;;;;;;4.43;4.03;;;9.60;99.90;;;;;;10436736;28;20180;-69
2022/04/16 00:15:14;;;;;;;5.13;4.40;;;9.60;99.90;;;;;;10436625;28;20634;-69
2022/04/16 00:20:14;;;;;;;5.40;4.90;;;9.60;99.90;;;;;;10428492;28;20204;-70
2022/04/16 00:25:16;;;;;;;5.30;4.37;;;9.50;99.90;;;;;;10435455;28;20187;-71
2022/04/16 00:30:17;;;;;;;5.67;4.77;;;9.40;99.90;;;;;;10437081;28;20787;-70
2022/04/16 00:35:29;;;;;;;4.43;4.03;;;9.30;99.90;;;;;;10426612;28;20187;-70
2022/04/16 00:40:29;;;;;;;5.10;4.20;;;9.30;99.90;;;;;;10434249;28;20515;-69
2022/04/16 00:45:31;;;;;;;6.13;4.97;;;9.30;99.90;;;;;;10431366;28;20211;-71
2022/04/16 00:50:32;;;;;;;5.30;4.73;;;9.40;99.90;;;;;;10436816;28;20206;-70
2022/04/16 00:55:37;;;;;;;7.43;4.33;;;9.40;99.90;;;;;;10432716;28;20735;-71
2022/04/16 01:00:38;;;;;;;5.63;4.00;;;9.50;99.90;;;;;;10429425;28;20188;-70
2022/04/16 01:05:38;;;;;;;5.27;4.13;;;9.50;99.90;;;;;;10432138;28;20196;-69
2022/04/16 01:10:42;;;;;;;5.00;4.23;;;9.60;99.90;;;;;;10430493;28;20686;-70
2022/04/16 01:15:43;;;;;;;4.70;4.07;;;9.70;99.90;;;;;;10431215;28;20209;-71
2022/04/16 01:20:44;;;;;;;4.67;4.23;;;9.90;99.90;;;;;;10430287;28;20647;-70
2022/04/16 01:25:45;;;;;;;5.57;4.47;;;10.10;99.90;;;;;;10444381;28;20197;-70
2022/04/16 01:30:48;;;;;;;4.60;4.20;;;10.10;99.90;;;;;;10430874;28;20528;-69
2022/04/16 01:35:51;;;;;;;4.40;4.00;;;10.10;99.90;;;;;;10430062;28;20196;-70
2022/04/16 01:40:55;;;;;;;5.13;4.00;;;10.20;99.90;;;;;;10433470;28;20192;-70
2022/04/16 01:45:57;;;;;;;5.63;4.20;;;10.20;99.90;;;;;;10443634;28;20735;-69
2022/04/16 01:50:58;;;;;;;5.37;4.30;;;10.20;99.90;;;;;;10442539;28;20200;-70
2022/04/16 01:55:59;;;;;;;6.40;4.57;;;10.20;99.90;;;;;;10438870;28;20192;-70
2022/04/16 02:00:59;;;;;;;6.23;4.20;;;10.30;99.90;;;;;;10441965;28;20211;-70
2022/04/16 02:06:00;;;;;;;5.20;4.43;;;10.30;99.90;;;;;;10441677;28;20200;-70
2022/04/16 02:11:01;;;;;;;6.17;4.47;;;10.30;99.90;;;;;;10440909;28;20176;-70
2022/04/16 02:16:02;;;;;;;8.43;4.77;;;10.30;99.90;;;;;;10441694;28;20548;-70
2022/04/16 02:21:03;;;;;;;5.83;5.03;;;10.40;99.90;;;;;;10426664;28;20188;-70
2022/04/16 02:26:06;;;;;;;7.83;5.10;;;10.40;99.90;;;;;;10439491;28;20637;-70
2022/04/16 02:31:08;;;;;;;6.40;5.43;;;10.30;99.90;;;;;;10439972;28;20179;-70
2022/04/16 02:36:08;;;;;;;6.37;4.93;;;10.20;99.90;;;;;;10446686;28;20180;-69
2022/04/16 02:41:09;;;;;;;5.57;4.90;;;10.30;99.90;;;;;;10431375;28;20623;-70
2022/04/16 02:51:29;;;;;;;8.10;5.27;;;10.30;99.90;;;;;;10434008;28;20218;-70
2022/04/16 02:56:30;;;;;;;5.63;5.03;;;10.30;99.90;;;;;;10426842;28;20222;-69
2022/04/16 03:01:31;;;;;;;6.27;5.47;;;10.30;99.90;;;;;;10434507;28;20188;-70
2022/04/16 03:06:31;;;;;;;6.63;5.63;;;10.20;99.90;;;;;;10437122;28;20224;-70
2022/04/16 03:11:32;;;;;;;7.47;5.90;;;10.10;99.90;;;;;;10431629;28;20234;-69
2022/04/16 03:21:52;;;;;;;7.03;5.60;;;10.10;99.90;;;;;;10433323;28;20247;-69
2022/04/16 03:26:53;;;;;;;7.07;5.70;;;10.10;99.90;;;;;;10434023;28;20310;-70
2022/04/16 03:31:53;;;;;;;6.93;6.00;;;10.20;99.90;;;;;;10435994;28;20207;-70
2022/04/16 03:36:54;;;;;;;7.23;6.13;;;10.20;99.90;;;;;;10429398;28;20288;-70
2022/04/16 03:41:54;;;;;;;6.57;5.97;;;10.10;99.90;;;;;;10441196;28;20204;-69
2022/04/16 03:46:55;;;;;;;7.57;6.17;;;10.10;99.90;;;;;;10431447;28;20212;-69
2022/04/16 03:51:56;;;;;;;9.77;5.90;;;10.10;99.90;;;;;;10428949;28;20264;-69
2022/04/16 04:02:17;;;;;;;6.47;5.77;;;10.10;99.90;;;;;;10437513;28;20187;-70
2022/04/16 04:07:18;;;;;;;9.73;6.67;;;10.00;99.90;;;;;;10428634;28;20291;-69
2022/04/16 04:12:18;;;;;;;10.20;6.17;;;10.10;99.90;;;;;;10435833;28;20623;-71
2022/04/16 04:17:19;;;;;;;6.57;5.87;;;10.10;99.90;;;;;;10420616;28;20296;-70
2022/04/16 04:22:20;;;;;;;6.90;6.17;;;10.00;99.90;;;;;;10435636;28;20188;-70
2022/04/16 04:27:20;;;;;;;8.97;6.27;;;10.10;99.90;;;;;;10436034;28;20582;-70
2022/04/16 04:32:21;;;;;;;6.60;5.90;;;10.10;99.90;;;;;;10434338;28;20635;-70
2022/04/16 04:37:22;;;;;;;6.50;5.80;;;10.20;99.90;;;;;;10427372;28;20197;-69
2022/04/16 04:42:31;;;;;;;6.50;5.77;;;10.20;99.90;;;;;;10433064;28;20222;-69
2022/04/16 04:47:32;;;;;;;8.00;5.47;;;10.40;99.90;;;;;;10434210;28;20762;-69
2022/04/16 04:52:35;;;;;;;7.13;5.80;;;10.40;99.90;;;;;;10438275;28;20275;-69
2022/04/16 04:57:36;;;;;;;8.23;5.97;;;10.40;99.90;;;;;;10420994;28;20635;-69
2022/04/16 05:02:45;;;;;;;8.53;6.03;;;10.50;99.90;;;;;;10434182;28;20188;-69
2022/04/16 05:07:45;;;;;;;7.77;5.33;;;10.70;99.90;;;;;;10429888;28;20430;-69
2022/04/16 05:12:46;;;;;;;7.73;5.60;;;10.70;99.90;;;;;;10438844;28;20583;-69
2022/04/16 05:17:46;;;;;;;7.83;6.23;;;10.60;99.90;;;;;;10434099;28;20627;-68
2022/04/16 05:22:47;;;;;;;8.83;6.07;;;10.60;99.90;;;;;;10444896;28;20187;-68
2022/04/16 05:27:48;;;;;;;7.90;6.20;;;10.60;99.90;;;;;;10436478;28;20274;-70
2022/04/16 05:32:50;;;;;;;8.60;6.20;;;10.70;99.90;;;;;;10432915;28;20230;-69
2022/04/16 05:37:51;;;;;;;6.23;5.37;;;10.70;99.90;;;;;;10443740;28;20237;-69
2022/04/16 05:42:51;;;;;;;6.97;6.00;;;10.80;99.90;;;;;;10434289;28;20286;-69
2022/04/16 05:47:52;;;;;;;6.77;5.40;;;10.80;99.90;;;;;;10439177;28;20832;-69
2022/04/16 05:52:55;;;;;;;5.93;5.33;;;10.90;99.90;;;;;;10433795;28;20231;-70
2022/04/16 05:57:58;;;;;;;6.17;5.47;;;10.90;99.90;;;;;;10438745;28;20648;-71
2022/04/16 06:02:59;;;;;;;5.80;5.20;;;11.00;99.90;;;;;;10434943;28;20239;-69
2022/04/16 06:08:03;;;;;;;6.40;5.33;;;11.00;99.90;;;;;;10438005;28;20269;-69
2022/04/16 06:13:07;;;;;;;5.43;4.87;;;11.20;99.90;;;;;;10434599;28;20188;-70
2022/04/16 06:18:08;;;;;;;7.47;5.10;;;11.20;99.90;;;;;;10447480;28;20706;-70
2022/04/16 06:23:10;;;;;;;10.17;5.10;;;11.20;99.90;;;;;;10432605;28;20753;-69
2022/04/16 06:28:11;;;;;;;7.27;5.03;;;11.30;99.90;;;;;;10439575;28;20208;-69
2022/04/16 06:33:11;;;;;;;6.37;5.20;;;11.30;99.90;;;;;;10439337;28;20184;-69
2022/04/16 06:38:12;;;;;;;6.30;4.73;;;11.30;99.90;;;;;;10437879;28;20214;-69
2022/04/16 06:43:12;;;;;;;5.87;5.00;;;11.40;99.90;;;;;;10439294;28;20184;-68
2022/04/16 06:48:13;;;;;;;6.93;5.43;;;11.30;99.90;;;;;;10431825;28;20204;-69
2022/04/16 06:53:13;;;;;;;5.90;4.93;;;11.40;99.90;;;;;;10439203;28;20183;-70
2022/04/16 06:58:14;;;;;;;6.23;5.07;;;11.70;99.90;;;;;;10438730;28;20195;-69
2022/04/16 07:03:15;;;;;;;7.00;5.93;;;12.00;99.90;;;;;;10436963;28;20246;-70
2022/04/16 07:08:15;;;;;;;6.30;5.30;;;12.30;99.90;;;;;;10438339;28;20212;-70
2022/04/16 07:13:16;;;;;;;5.73;5.03;;;12.80;99.90;;;;;;10429561;28;20201;-69
2022/04/16 07:18:16;;;;;;;5.73;4.60;;;12.80;99.90;;;;;;10437498;28;20192;-69
2022/04/16 07:23:17;;;;;;;6.50;5.03;;;12.70;99.90;;;;;;10437599;28;20253;-69
2022/04/16 07:28:23;;;;;;;6.07;4.67;;;12.40;99.90;;;;;;10430275;28;20212;-70
2022/04/16 07:33:29;;;;;;;4.63;4.17;;;12.80;99.90;;;;;;10427977;28;20212;-70
2022/04/16 07:38:31;;;;;;;4.80;4.30;;;15.30;99.90;;;;;;10433690;28;20214;-69
2022/04/16 07:43:33;;;;;;;6.13;4.20;;;17.90;95.30;;;;;;10438612;28;20184;-71
2022/04/16 07:48:33;;;;;;;3.83;3.53;;;18.90;84.70;;;;;;10434423;28;20238;-70
2022/04/16 07:53:34;;;;;;;3.47;3.17;;;19.80;72.50;;;;;;10429826;28;20251;-70
2022/04/16 07:58:34;;;;;;;3.37;3.07;;;19.80;65.30;;;;;;10433216;28;20200;-70
2022/04/16 08:03:35;;;;;;;3.73;3.17;;;18.70;66.00;;;;;;10438870;28;20191;-70
2022/04/16 08:08:35;;;;;;;3.40;3.10;;;17.50;71.90;;;;;;10426693;28;20207;-70
2022/04/16 08:13:36;;;;;;;3.67;3.30;;;19.00;65.60;;;;;;10435940;28;20199;-70
2022/04/16 08:18:37;;;;;;;3.40;3.10;;;17.50;69.20;;;;;;10433019;28;20191;-71
2022/04/16 08:23:44;;;;;;;3.97;3.20;;;17.10;73.00;;;;;;10429434;28;20192;-70
2022/04/16 08:28:45;;;;;;;5.50;3.30;;;19.20;64.20;;;;;;10430433;28;20240;-69
2022/04/16 08:33:46;;;;;;;4.03;2.83;;;19.00;61.70;;;;;;10432135;28;20267;-69
2022/04/16 08:38:48;;;;;;;3.67;3.13;;;17.10;67.20;;;;;;10430247;28;20210;-69
2022/04/16 08:43:50;;;;;;;4.17;3.20;;;15.80;73.20;;;;;;10427373;28;20205;-69
2022/04/16 08:48:51;;;;;;;3.50;3.17;;;14.70;77.70;;;;;;10432623;28;20212;-69
2022/04/16 08:53:55;;;;;;;3.53;3.20;;;14.40;80.60;;;;;;10429650;28;20193;-69
2022/04/16 08:58:55;;;;;;;3.60;3.20;;;14.50;83.60;;;;;;10434836;28;20198;-70
2022/04/16 09:03:58;;;;;;;6.67;3.43;;;14.40;82.90;;;;;;10434871;28;20276;-70
2022/04/16 09:09:11;;;;;;;5.63;3.20;;;14.30;82.80;;;;;;10428841;28;20290;-69
2022/04/16 09:14:12;;;;;;;3.40;3.00;;;14.10;84.30;;;;;;10434974;28;20240;-70
2022/04/16 09:19:17;;;;;;;3.87;3.27;;;14.60;81.60;;;;;;10430290;28;20217;-69
2022/04/16 09:24:18;;;;;;;4.40;2.63;;;15.50;77.10;;;;;;10425945;28;20181;-70
2022/04/16 09:29:19;;;;;;;3.10;2.40;;;15.60;76.70;;;;;;10427201;28;20258;-69
2022/04/16 09:34:23;;;;;;;4.30;2.37;;;17.80;69.10;;;;;;10432999;28;20849;-70
2022/04/16 09:39:25;;;;;;;2.50;2.10;;;18.50;61.90;;;;;;10423860;28;20640;-68
2022/04/16 09:44:27;;;;;;;2.50;2.07;;;17.20;64.70;;;;;;10449147;28;20287;-69
2022/04/16 09:49:33;;;;;;;2.30;1.97;;;16.70;68.80;;;;;;10432377;28;20195;-70
2022/04/16 09:54:35;;;;;;;2.43;2.10;;;17.20;65.10;;;;;;10433649;28;20526;-69
2022/04/16 09:59:37;;;;;;;4.73;2.17;;;16.70;65.60;;;;;;10442320;28;20631;-69
2022/04/16 10:04:38;;;;;;;2.80;1.90;;;17.00;64.20;;;;;;10438069;28;20182;-69
2022/04/16 10:09:41;;;;;;;1.83;1.73;;;18.20;60.80;;;;;;10440869;28;20218;-69
2022/04/16 10:15:04;;;;;;;2.80;1.67;;;21.60;53.90;;;;;;10436633;28;20647;-70
2022/04/16 10:20:16;;;;;;;2.40;1.30;;;21.40;49.70;;;;;;10437110;28;20674;-69
2022/04/16 10:25:27;;;;;;;2.97;1.90;;;23.40;46.30;;;;;;10431238;28;20229;-70
2022/04/16 10:30:50;;;;;;;3.77;2.10;;;23.30;45.50;;;;;;10436149;28;20191;-70
2022/04/16 10:35:52;;;;;;;2.00;1.70;;;24.20;42.40;;;;;;10439547;28;20190;-70
2022/04/16 10:41:09;;;;;;;1.43;1.33;;;25.20;41.00;;;;;;10434766;28;20195;-70
2022/04/16 10:46:10;;;;;;;1.73;1.63;;;26.40;35.80;;;;;;10431280;28;20741;-69
2022/04/16 10:51:11;;;;;;;1.60;1.47;;;25.80;35.70;;;;;;10438566;28;20233;-69
2022/04/16 10:56:20;;;;;;;2.60;1.20;;;24.10;35.30;;;;;;10434231;28;20707;-69
2022/04/16 11:01:25;;;;;;;3.10;1.43;;;24.10;36.10;;;;;;10430678;28;20181;-70
2022/04/16 11:06:35;;;;;;;1.60;1.50;;;25.00;34.50;;;;;;10437231;28;20278;-69
2022/04/16 11:11:38;;;;;;;2.27;1.70;;;21.70;39.00;;;;;;10438609;28;20272;-70
2022/04/16 11:16:44;;;;;;;4.80;1.57;;;19.30;43.00;;;;;;10432665;28;20206;-69
2022/04/16 11:21:45;;;;;;;1.67;1.57;;;17.60;44.40;;;;;;10433222;28;20658;-69
2022/04/16 11:37:26;;;;;;;2.90;1.30;;;16.70;50.90;;;;;;10430149;28;20180;-69
2022/04/16 11:42:27;;;;;;;2.37;1.13;;;16.50;50.70;;;;;;10435655;28;20176;-69
2022/04/16 11:47:30;;;;;;;1.77;1.10;;;16.50;48.20;;;;;;10440346;28;20626;-69
2022/04/16 11:52:32;;;;;;;1.50;1.20;;;16.30;49.80;;;;;;10434184;28;20201;-69
2022/04/16 11:57:34;;;;;;;2.37;1.20;;;16.30;49.90;;;;;;10430014;28;20592;-69
2022/04/16 12:02:37;;;;;;;1.93;1.50;;;16.40;48.90;;;;;;10436112;28;20244;-69
2022/04/16 12:07:48;;;;;;;1.77;1.40;;;16.00;47.80;;;;;;10430515;28;20285;-68
2022/04/16 12:12:52;;;;;;;3.07;1.23;;;15.70;49.10;;;;;;10446886;28;20190;-70
2022/04/16 12:17:55;;;;;;;3.33;1.20;;;16.00;46.70;;;;;;10434757;28;20652;-70
2022/04/16 12:22:59;;;;;;;2.97;1.37;;;15.80;46.70;;;;;;10430274;28;20185;-69
2022/04/16 12:28:00;;;;;;;2.33;1.10;;;15.50;46.50;;;;;;10435195;28;20202;-70
2022/04/16 12:33:06;;;;;;;3.53;1.17;;;15.40;46.20;;;;;;10431544;28;20271;-71
2022/04/16 12:38:10;;;;;;;1.33;1.23;;;15.60;45.70;;;;;;10427810;28;20274;-69
2022/04/16 12:43:11;;;;;;;1.70;1.00;;;15.70;45.50;;;;;;10434878;28;20210;-69
2022/04/16 12:48:11;;;;;;;1.30;1.07;;;15.70;45.00;;;;;;10443481;28;20295;-70
2022/04/16 12:53:12;;;;;;;4.73;1.10;;;15.60;45.20;;;;;;10426324;28;20186;-70
2022/04/16 12:58:13;;;;;;;6.30;1.10;;;15.40;44.30;;;;;;10435188;28;20578;-70
2022/04/16 13:03:14;;;;;;;1.07;0.97;;;15.40;44.70;;;;;;10434600;28;20184;-69
2022/04/16 13:08:16;;;;;;;2.93;1.23;;;15.50;43.40;;;;;;10435249;28;20296;-69
2022/04/16 13:13:17;;;;;;;1.33;1.23;;;15.40;43.50;;;;;;10434143;28;20184;-70
2022/04/16 13:18:17;;;;;;;3.70;0.97;;;15.60;41.90;;;;;;10435418;28;20182;-70
2022/04/16 13:23:21;;;;;;;3.63;1.03;;;15.60;41.50;;;;;;10426048;28;20258;-70
2022/04/16 13:28:22;;;;;;;1.60;1.07;;;15.70;41.70;;;;;;10426482;28;20274;-69
2022/04/16 13:33:22;;;;;;;2.43;0.77;;;15.70;41.30;;;;;;10434747;28;20263;-69
2022/04/16 13:38:23;;;;;;;2.37;0.97;;;15.70;40.00;;;;;;10434875;28;20188;-69
2022/04/16 13:43:23;;;;;;;2.77;1.10;;;15.80;39.70;;;;;;10434399;28;20679;-70
2022/04/16 13:48:25;;;;;;;5.60;1.60;;;15.80;42.10;;;;;;10440014;28;20219;-71
2022/04/16 13:53:26;;;;;;;1.20;0.80;;;15.80;41.40;;;;;;10442730;28;20269;-69
2022/04/16 13:58:26;;;;;;;3.40;1.00;;;15.80;41.40;;;;;;10433840;28;20363;-70
2022/04/16 14:03:27;;;;;;;1.37;0.83;;;15.80;41.10;;;;;;10441935;28;20227;-70
2022/04/16 14:08:27;;;;;;;1.13;0.80;;;15.80;39.90;;;;;;10439235;28;20682;-70
2022/04/16 14:13:32;;;;;;;0.87;0.77;;;15.60;38.80;;;;;;10434397;28;20189;-71
2022/04/16 14:18:34;;;;;;;0.60;0.50;;;15.70;37.10;;;;;;10436770;28;20195;-70
2022/04/16 14:23:35;;;;;;;1.23;0.70;;;15.80;37.90;;;;;;10440950;28;20186;-70
2022/04/16 14:28:39;;;;;;;3.43;0.83;;;15.90;38.10;;;;;;10431564;28;20287;-69
2022/04/16 14:33:40;;;;;;;3.60;0.80;;;16.00;38.20;;;;;;10431512;28;20183;-71
2022/04/16 14:38:42;;;;;;;1.40;0.77;;;16.00;36.40;;;;;;10435413;28;20268;-71
2022/04/16 14:43:56;;;;;;;0.80;0.70;;;15.90;35.70;;;;;;10418955;28;20699;-71
2022/04/16 14:48:57;;;;;;;0.90;0.70;;;15.90;35.30;;;;;;10432839;28;20287;-70
2022/04/16 14:53:57;;;;;;;1.20;0.80;;;15.80;34.10;;;;;;10431608;28;20715;-70
2022/04/16 14:58:59;;;;;;;1.40;0.60;;;15.80;34.10;;;;;;10432242;28;20533;-69
2022/04/16 15:04:00;;;;;;;2.47;0.90;;;15.80;33.40;;;;;;10437804;28;20192;-69
2022/04/16 15:09:01;;;;;;;3.33;0.60;;;15.80;33.60;;;;;;10430602;28;20218;-68
2022/04/16 15:14:02;;;;;;;2.23;0.53;;;15.80;33.90;;;;;;10435955;28;20194;-69
2022/04/16 15:19:02;;;;;;;2.67;0.80;;;15.80;32.80;;;;;;10431457;28;20195;-70
2022/04/16 15:24:03;;;;;;;1.43;0.60;;;15.70;32.40;;;;;;10435946;28;20184;-70
2022/04/16 15:29:04;;;;;;;2.03;0.80;;;15.70;33.30;;;;;;10431825;28;20240;-70
2022/04/16 15:34:07;;;;;;;1.87;0.70;;;15.60;33.60;;;;;;10427999;28;20185;-69
2022/04/16 15:39:08;;;;;;;1.40;0.67;;;15.50;33.20;;;;;;10442139;28;20216;-70
2022/04/16 15:44:09;;;;;;;1.23;0.80;;;15.60;34.30;;;;;;10428743;28;20223;-69
2022/04/16 15:49:10;;;;;;;1.03;0.67;;;15.60;33.50;;;;;;10434929;28;20214;-70
2022/04/16 15:54:10;;;;;;;1.50;1.20;;;15.50;33.50;;;;;;10439620;28;20673;-69
2022/04/16 15:59:11;;;;;;;0.93;0.77;;;15.40;33.70;;;;;;10428680;28;20227;-72
2022/04/16 16:09:30;;;;;;;2.43;0.80;;;15.40;34.10;;;;;;10428739;28;20214;-71
2022/04/16 16:14:31;;;;;;;1.53;1.20;;;15.40;33.90;;;;;;10425022;28;20204;-70
2022/04/16 16:19:32;;;;;;;2.00;1.37;;;15.20;33.10;;;;;;10435713;28;20192;-71
2022/04/16 16:24:32;;;;;;;1.33;0.90;;;15.20;35.40;;;;;;10433294;28;20213;-70
2022/04/16 16:29:34;;;;;;;3.20;1.17;;;15.10;33.90;;;;;;10429882;28;20270;-70
2022/04/16 16:34:34;;;;;;;1.83;1.40;;;15.00;34.80;;;;;;10434560;28;20203;-70
2022/04/16 16:39:35;;;;;;;1.40;1.30;;;15.00;36.20;;;;;;10432559;28;20658;-70
2022/04/16 16:44:36;;;;;;;1.70;1.13;;;14.90;34.20;;;;;;10429474;28;20199;-69
2022/04/16 16:49:37;;;;;;;2.40;1.30;;;14.80;34.40;;;;;;10434067;28;20203;-71
2022/04/16 16:54:37;;;;;;;1.40;1.30;;;14.80;36.10;;;;;;10432145;28;20189;-70
2022/04/16 16:59:38;;;;;;;2.40;1.60;;;14.70;34.90;;;;;;10434161;28;20271;-70
2022/04/16 17:09:58;;;;;;;1.83;1.67;;;14.60;36.40;;;;;;10428743;28;20281;-69
2022/04/16 17:20:18;;;;;;;3.80;1.70;;;14.40;36.60;;;;;;10435133;28;20192;-71
2022/04/16 17:25:19;;;;;;;1.87;1.60;;;14.30;36.40;;;;;;10442694;28;20189;-69
2022/04/16 17:30:20;;;;;;;4.40;1.73;;;14.30;37.20;;;;;;10442577;28;20207;-69
2022/04/16 17:35:21;;;;;;;3.27;1.60;;;14.20;37.80;;;;;;10443096;28;20264;-69
2022/04/16 17:40:23;;;;;;;2.03;1.60;;;14.10;37.20;;;;;;10439518;28;20294;-70
2022/04/16 17:45:24;;;;;;;1.77;1.50;;;14.10;37.20;;;;;;10434047;28;20184;-70
2022/04/16 17:50:24;;;;;;;2.77;2.13;;;14.00;37.40;;;;;;10441969;28;20211;-71
2022/04/16 17:55:25;;;;;;;3.53;1.20;;;13.90;37.60;;;;;;10441808;28;20287;-70
2022/04/16 18:00:26;;;;;;;2.50;1.60;;;13.90;37.70;;;;;;10416512;28;20197;-70
2022/04/16 18:05:27;;;;;;;1.83;1.23;;;13.80;38.80;;;;;;10440252;28;20184;-70
2022/04/16 18:10:27;;;;;;;1.10;1.00;;;13.70;39.20;;;;;;10439327;28;20208;-70
2022/04/16 18:15:28;;;;;;;2.40;1.10;;;13.60;40.00;;;;;;10432748;28;20234;-70
2022/04/16 18:20:30;;;;;;;1.37;1.20;;;13.50;40.40;;;;;;10438514;28;20191;-70
2022/04/16 18:25:32;;;;;;;1.60;1.23;;;13.30;41.00;;;;;;10434198;28;20188;-70
2022/04/16 18:30:33;;;;;;;4.30;2.07;;;13.20;40.90;;;;;;10438706;28;20243;-69
2022/04/16 18:35:35;;;;;;;3.47;2.10;;;13.10;41.00;;;;;;10437845;28;20180;-69
2022/04/16 18:40:35;;;;;;;4.63;1.80;;;12.90;41.50;;;;;;10432114;28;20566;-70
2022/04/16 18:45:36;;;;;;;3.10;1.80;;;12.80;42.00;;;;;;10440020;28;20189;-70
2022/04/16 18:50:36;;;;;;;6.27;2.53;;;12.70;42.60;;;;;;10433025;28;20209;-69
2022/04/16 18:55:37;;;;;;;3.87;2.60;;;12.60;43.20;;;;;;10440973;28;20173;-70
2022/04/16 19:11:15;;;;;;;4.47;2.17;;;12.50;44.20;;;;;;10438214;28;20192;-69
2022/04/16 19:16:16;;;;;;;1.83;1.50;;;12.40;44.60;;;;;;10428683;28;20627;-70
2022/04/16 19:21:17;;;;;;;2.10;1.60;;;12.30;45.10;;;;;;10430974;28;20185;-70
2022/04/16 19:26:18;;;;;;;2.40;1.90;;;12.10;45.50;;;;;;10445237;28;20715;-71
2022/04/16 19:31:21;;;;;;;1.37;1.23;;;12.00;44.70;;;;;;10446087;28;20186;-70
2022/04/16 19:36:22;;;;;;;3.17;1.40;;;12.00;44.00;;;;;;10429366;28;20208;-69
2022/04/16 19:41:23;;;;;;;3.10;1.80;;;11.90;44.40;;;;;;10436906;28;20614;-70
2022/04/16 19:46:24;;;;;;;1.97;1.67;;;11.80;44.90;;;;;;10442270;28;20728;-70
2022/04/16 19:51:24;;;;;;;1.50;1.40;;;11.70;45.30;;;;;;10429875;28;20535;-70
2022/04/16 19:56:27;;;;;;;3.53;1.63;;;11.60;45.60;;;;;;10442472;28;20219;-71
2022/04/16 20:01:28;;;;;;;3.20;1.57;;;11.50;45.90;;;;;;10429809;28;20262;-69
2022/04/16 20:06:32;;;;;;;3.07;1.50;;;11.40;46.40;;;;;;10436203;28;20262;-71
2022/04/16 20:11:33;;;;;;;4.80;1.90;;;11.20;46.70;;;;;;10428597;28;20184;-69
2022/04/16 20:16:33;;;;;;;3.17;2.20;;;11.10;47.00;;;;;;10434287;28;20396;-70
2022/04/16 20:21:34;;;;;;;1.90;1.77;;;11.00;47.30;;;;;;10429954;28;20193;-70
2022/04/16 20:26:35;;;;;;;2.50;1.87;;;10.80;47.70;;;;;;10433596;28;20234;-71
2022/04/16 20:31:36;;;;;;;3.43;2.33;;;10.70;47.70;;;;;;10427416;28;20841;-69
2022/04/16 20:36:37;;;;;;;1.90;1.80;;;10.60;48.20;;;;;;10425711;28;20252;-69
2022/04/16 20:46:57;;;;;;;2.53;2.00;;;10.50;49.00;;;;;;10426213;28;20213;-71
2022/04/16 20:57:17;;;;;;;4.07;1.80;;;10.50;48.60;;;;;;10441984;28;20694;-71
2022/04/16 21:02:18;;;;;;;2.50;1.93;;;10.40;49.10;;;;;;10428730;28;20184;-70
2022/04/16 21:07:18;;;;;;;4.83;1.67;;;10.40;49.50;;;;;;10435843;28;20261;-72
2022/04/16 21:12:19;;;;;;;3.33;1.67;;;10.40;49.80;;;;;;10426611;28;20644;-70
2022/04/16 21:17:19;;;;;;;1.43;1.33;;;10.30;50.20;;;;;;10434969;28;20210;-72
2022/04/16 21:22:20;;;;;;;2.00;1.67;;;10.20;50.70;;;;;;10428452;28;20196;-70
2022/04/16 21:27:21;;;;;;;1.90;1.80;;;10.10;51.10;;;;;;10426814;28;20574;-70
2022/04/16 21:32:22;;;;;;;2.13;1.33;;;10.10;51.40;;;;;;10432912;28;20192;-70
2022/04/16 21:37:22;;;;;;;2.60;1.40;;;10.10;51.60;;;;;;10432600;28;20240;-70
2022/04/16 21:42:23;;;;;;;3.23;1.50;;;10.00;51.80;;;;;;10426055;28;20184;-69
2022/04/16 21:47:23;;;;;;;2.60;1.90;;;9.90;52.20;;;;;;10432088;28;20204;-71
2022/04/16 21:52:25;;;;;;;1.57;1.47;;;9.80;52.90;;;;;;10426944;28;20216;-71
2022/04/16 21:57:25;;;;;;;1.93;1.53;;;9.70;53.30;;;;;;10432868;28;20189;-71
2022/04/16 22:02:26;;;;;;;2.33;1.87;;;9.60;53.60;;;;;;10441252;28;20185;-69
2022/04/16 22:07:27;;;;;;;2.70;1.70;;;9.60;54.00;;;;;;10440969;28;20215;-70
2022/04/16 22:12:28;;;;;;;3.80;1.70;;;9.50;54.30;;;;;;10444947;28;20187;-70
2022/04/16 22:17:29;;;;;;;1.53;1.20;;;9.40;54.60;;;;;;10439638;28;20607;-70
2022/04/16 22:22:30;;;;;;;2.57;1.63;;;9.40;55.00;;;;;;10442826;28;20406;-70
2022/04/16 22:27:30;;;;;;;1.67;1.57;;;9.30;55.30;;;;;;10438672;28;20562;-70
2022/04/16 22:32:33;;;;;;;2.33;1.50;;;9.30;55.70;;;;;;10440752;28;20191;-70
2022/04/16 22:42:52;;;;;;;2.50;1.80;;;9.10;56.50;;;;;;10443509;28;20677;-70
2022/04/16 22:47:53;;;;;;;3.37;1.60;;;9.00;56.90;;;;;;10436957;28;20236;-69
2022/04/16 22:52:53;;;;;;;3.07;1.80;;;8.90;57.50;;;;;;10435515;28;20223;-71
2022/04/16 22:57:54;;;;;;;2.40;1.50;;;8.90;58.00;;;;;;10431627;28;20623;-69
2022/04/16 23:02:55;;;;;;;4.43;1.70;;;8.80;58.30;;;;;;10436083;28;20253;-70
2022/04/16 23:07:55;;;;;;;2.80;1.60;;;8.70;58.70;;;;;;10447939;28;20226;-69
2022/04/16 23:12:56;;;;;;;1.83;1.40;;;8.70;59.10;;;;;;10438678;28;20288;-70
2022/04/16 23:17:59;;;;;;;1.53;1.43;;;8.60;59.60;;;;;;10431794;28;20932;-71
2022/04/16 23:23:00;;;;;;;3.07;1.70;;;8.50;60.10;;;;;;10436800;28;20184;-70
2022/04/16 23:28:01;;;;;;;1.77;1.50;;;8.40;60.80;;;;;;10430546;28;20219;-70
2022/04/16 23:33:02;;;;;;;1.30;1.17;;;8.40;61.40;;;;;;10428930;28;20852;-69
2022/04/16 23:38:04;;;;;;;2.03;1.60;;;8.30;62.00;;;;;;10426225;28;20188;-70
2022/04/16 23:43:05;;;;;;;2.13;1.27;;;8.20;62.50;;;;;;10436627;28;20295;-71
2022/04/16 23:48:06;;;;;;;3.37;1.40;;;8.10;63.10;;;;;;10446306;28;20302;-71
2022/04/16 23:53:09;;;;;;;1.97;1.30;;;8.10;63.40;;;;;;10435684;28;20188;-71
2022/04/16 23:58:10;;;;;;;3.47;1.93;;;8.00;64.00;;;;;;10442695;28;20648;-70
